»·PEaware :: N7GL KALO-KGCN

N7GL :: KALO-KGCN

FLIGHT INFORMATION

Flight Status: Arrived
Operator: Privately registered:
United States
More flights under this callsign
Pilot: Georg L. (13308)
Aircraft: BEECH AIRCRAFT SUPER KING AIR 350
(B350)
More flights by this aircraft type
Origin: KALO Waterloo Mun
United States
Destination: KGCN Grand Canyon Natl Park
United States
More flights between these airports :: More routes between these airports
Route: +KICKR FOD J94 KATES WYYTE YANKI GOORE FQF J10 HBU J128 TBC
File this flight plan on PilotEdge
Remarks:
Altitude:
(Current/Filed)
24,000ft
Speed:
(Current/Filed)
292kts
Departed: 29-Jul-20 08:06 AM
Arrived: 29-Jul-20 11:01 AM
Distance/Time
Traveled:
996nm/2:55
Distance/Time
To Go:
Arrived

Flight Plot

Page will automatically refresh every two minutes.

Flight plan parsing failed; only flown route is shown


Map Options




Map Legend


Flown Route
Filed Route
Departure Airport
Arrival Airport
Navaid (VOR, NDB)
Fix

Horizontal Profiles

Position Reports

Time Latitude Longitude Heading Altitude Ground
Speed
29-Jul-20 07:40 42.551288 -92.392830 213 868ft 0kts
29-Jul-20 07:41 42.551288 -92.392830 213 868ft 0kts
29-Jul-20 07:44 42.551288 -92.392830 213 868ft 0kts
29-Jul-20 07:45 42.551288 -92.392830 213 868ft 0kts
29-Jul-20 07:46 42.551288 -92.392830 213 868ft 0kts
29-Jul-20 07:47 42.551288 -92.392830 213 868ft 0kts
29-Jul-20 07:48 42.551288 -92.392830 213 868ft 0kts
29-Jul-20 07:49 42.551288 -92.392830 213 868ft 0kts
29-Jul-20 07:50 42.551288 -92.392830 213 868ft 0kts
29-Jul-20 07:51 42.551288 -92.392830 213 868ft 0kts
29-Jul-20 07:52 42.551288 -92.392830 213 868ft 0kts
29-Jul-20 07:53 42.551288 -92.392830 213 868ft 0kts
29-Jul-20 07:54 42.551288 -92.392830 213 868ft 0kts
29-Jul-20 07:55 42.551288 -92.392830 213 868ft 0kts
29-Jul-20 07:56 42.551288 -92.392830 213 868ft 0kts
29-Jul-20 07:57 42.551288 -92.392830 213 868ft 0kts
29-Jul-20 07:58 42.551288 -92.392830 213 868ft 0kts
29-Jul-20 07:59 42.551288 -92.392830 213 868ft 0kts
29-Jul-20 08:00 42.551483 -92.393810 348 868ft 7kts
29-Jul-20 08:01 42.550835 -92.398552 236 868ft 20kts
29-Jul-20 08:02 42.549553 -92.403395 278 867ft 0kts
29-Jul-20 08:03 42.549553 -92.403395 278 867ft 0kts
29-Jul-20 08:04 42.549553 -92.403395 278 867ft 0kts
29-Jul-20 08:05 42.551100 -92.404195 8 868ft 50kts
29-Jul-20 08:06 42.580267 -92.400842 357 1829ft 146kts
29-Jul-20 08:07 42.594772 -92.453996 282 3328ft 177kts
29-Jul-20 08:09 42.617081 -92.513052 304 4957ft 179kts
29-Jul-20 08:10 42.646276 -92.568420 305 6455ft 181kts
29-Jul-20 08:11 42.675786 -92.623919 305 7840ft 181kts
29-Jul-20 08:12 42.688611 -92.686970 266 9160ft 181kts
29-Jul-20 08:13 42.685411 -92.755260 268 10403ft 181kts
29-Jul-20 08:14 42.682508 -92.823799 268 11715ft 181kts
29-Jul-20 08:15 42.679564 -92.891922 269 13008ft 181kts
29-Jul-20 08:16 42.676649 -92.960286 269 14397ft 181kts
29-Jul-20 08:17 42.673680 -93.028430 269 15843ft 181kts
29-Jul-20 08:18 42.670598 -93.096777 269 17296ft 181kts
29-Jul-20 08:19 42.667445 -93.164952 269 18743ft 181kts
29-Jul-20 08:20 42.663834 -93.233169 267 20140ft 181kts
29-Jul-20 08:21 42.658228 -93.301135 265 21368ft 182kts
29-Jul-20 08:22 42.650425 -93.369142 262 22538ft 183kts
29-Jul-20 08:23 42.640150 -93.436354 259 23639ft 182kts
29-Jul-20 08:24 42.626518 -93.507123 257 24027ft 212kts
29-Jul-20 08:25 42.609127 -93.586355 255 24015ft 225kts
29-Jul-20 08:26 42.588989 -93.669908 253 24020ft 238kts
29-Jul-20 08:27 42.584569 -93.758544 273 24020ft 243kts
29-Jul-20 08:28 42.593287 -93.939005 274 24021ft 250kts
29-Jul-20 08:28 42.601493 -94.097048 274 24022ft 254kts
29-Jul-20 08:30 42.612544 -94.329769 271 24016ft 258kts
29-Jul-20 08:30 42.605679 -94.629749 269 24013ft 260kts
29-Jul-20 08:31 42.599635 -95.025473 268 24017ft 262kts
29-Jul-20 08:33 42.589801 -95.488234 267 24004ft 264kts
29-Jul-20 08:33 42.581498 -95.822956 266 24015ft 265kts
29-Jul-20 08:34 42.570329 -96.224068 266 23999ft 266kts
29-Jul-20 08:35 42.557680 -96.626681 266 23993ft 267kts
29-Jul-20 08:36 42.492692 -97.013642 245 24005ft 265kts
29-Jul-20 08:37 42.396037 -97.392483 248 24018ft 266kts
29-Jul-20 08:38 42.296911 -97.770041 248 24020ft 265kts
29-Jul-20 08:39 42.197549 -98.145565 247 24016ft 265kts
29-Jul-20 08:40 42.096848 -98.520467 248 24006ft 265kts
29-Jul-20 08:41 41.996430 -98.888611 248 24014ft 266kts
29-Jul-20 08:42 41.895568 -99.262319 251 24018ft 267kts
29-Jul-20 08:43 41.803717 -99.644155 251 24027ft 268kts
29-Jul-20 08:44 41.708552 -100.026235 250 24035ft 270kts
29-Jul-20 08:45 41.611300 -100.409912 251 24035ft 271kts
29-Jul-20 08:46 41.509852 -100.789503 242 23996ft 271kts
29-Jul-20 08:47 41.340940 -101.121763 239 24018ft 270kts
29-Jul-20 08:48 41.178599 -101.458447 238 24033ft 270kts
29-Jul-20 08:49 41.092742 -101.634320 238 24041ft 269kts
29-Jul-20 08:50 41.051896 -101.717309 238 24046ft 269kts
29-Jul-20 08:51 41.011131 -101.800137 238 24036ft 269kts
29-Jul-20 08:52 40.970104 -101.883221 238 24037ft 269kts
29-Jul-20 08:53 40.929129 -101.965955 238 24035ft 269kts
29-Jul-20 08:54 40.888757 -102.047514 239 24041ft 268kts
29-Jul-20 08:55 40.847803 -102.129656 239 24053ft 268kts
29-Jul-20 08:56 40.806665 -102.212090 239 24064ft 268kts
29-Jul-20 08:57 40.765764 -102.293812 239 24072ft 268kts
29-Jul-20 08:58 40.724633 -102.375682 239 24074ft 268kts
29-Jul-20 08:59 40.683480 -102.457424 240 24076ft 268kts
29-Jul-20 09:00 40.643033 -102.539647 243 24078ft 267kts
29-Jul-20 09:01 40.606186 -102.624394 243 24078ft 267kts
29-Jul-20 09:02 40.588168 -102.665312 242 24082ft 267kts
29-Jul-20 09:03 40.550708 -102.749580 242 24082ft 268kts
29-Jul-20 09:04 40.512899 -102.834315 242 24082ft 269kts
29-Jul-20 09:05 40.474979 -102.918971 242 24082ft 269kts
29-Jul-20 09:06 40.436937 -103.003764 243 24082ft 269kts
29-Jul-20 09:07 40.399622 -103.086534 243 24574ft 253kts
29-Jul-20 09:08 40.364877 -103.163192 243 25412ft 237kts
29-Jul-20 09:09 40.332052 -103.235451 243 26098ft 230kts
29-Jul-20 09:10 40.298419 -103.309861 243 26097ft 244kts
29-Jul-20 09:11 40.263098 -103.387786 243 26101ft 253kts
29-Jul-20 09:12 40.226498 -103.468265 243 26105ft 261kts
29-Jul-20 09:13 40.188965 -103.550470 243 26110ft 265kts
29-Jul-20 09:14 40.150975 -103.633434 244 26115ft 268kts
29-Jul-20 09:15 40.112425 -103.717384 243 26122ft 270kts
29-Jul-20 09:16 40.073495 -103.801918 243 26121ft 272kts
29-Jul-20 09:17 40.034387 -103.886595 243 26120ft 273kts
29-Jul-20 09:18 39.995160 -103.971281 243 26125ft 273kts
29-Jul-20 09:19 39.955743 -104.056146 243 26137ft 273kts
29-Jul-20 09:20 39.916379 -104.140674 243 26150ft 273kts
29-Jul-20 09:21 39.876971 -104.225063 243 26152ft 272kts
29-Jul-20 09:22 39.837548 -104.309249 243 26151ft 272kts
29-Jul-20 09:23 39.798129 -104.393206 243 26151ft 272kts
29-Jul-20 09:24 39.758683 -104.476996 243 26151ft 272kts
29-Jul-20 09:25 39.719058 -104.560856 243 26150ft 272kts
29-Jul-20 09:26 39.679264 -104.644541 242 26149ft 272kts
29-Jul-20 09:27 39.635803 -104.724627 242 26186ft 272kts
29-Jul-20 09:28 39.595514 -104.808256 242 26219ft 273kts
29-Jul-20 09:29 39.554499 -104.891311 242 26253ft 273kts
29-Jul-20 09:30 39.513363 -104.974164 242 26395ft 271kts
29-Jul-20 09:31 39.472616 -105.056021 242 26508ft 270kts
29-Jul-20 09:32 39.432014 -105.137367 242 26613ft 269kts
29-Jul-20 09:33 39.391027 -105.219447 242 26612ft 272kts
29-Jul-20 09:34 39.349697 -105.301851 242 26611ft 274kts
29-Jul-20 09:35 39.308015 -105.384760 242 26611ft 276kts
29-Jul-20 09:36 39.266199 -105.467686 242 26618ft 276kts
29-Jul-20 09:37 39.224124 -105.550917 242 26619ft 277kts
29-Jul-20 09:38 39.182100 -105.633831 242 26618ft 277kts
29-Jul-20 09:39 39.139629 -105.717407 242 26625ft 278kts
29-Jul-20 09:40 39.097168 -105.800753 242 26624ft 280kts
29-Jul-20 09:41 39.054300 -105.884683 241 26605ft 281kts
29-Jul-20 09:42 39.011085 -105.969093 241 26529ft 284kts
29-Jul-20 09:43 38.967525 -106.053900 242 26506ft 284kts
29-Jul-20 09:44 38.923636 -106.139156 242 26386ft 287kts
29-Jul-20 09:45 38.880299 -106.223065 242 26373ft 285kts
29-Jul-20 09:46 38.836226 -106.308176 242 26370ft 284kts
29-Jul-20 09:47 38.792520 -106.392377 242 26390ft 282kts
29-Jul-20 09:48 38.749178 -106.475628 242 26407ft 281kts
29-Jul-20 09:49 38.705667 -106.559053 242 26412ft 281kts
29-Jul-20 09:50 38.662251 -106.642070 242 26415ft 281kts
29-Jul-20 09:51 38.619075 -106.724415 242 26553ft 277kts
29-Jul-20 09:52 38.575869 -106.806564 242 26568ft 279kts
29-Jul-20 09:53 38.532171 -106.889531 242 26473ft 284kts
29-Jul-20 09:54 38.487677 -106.973749 242 26370ft 286kts
29-Jul-20 09:55 38.442914 -107.058372 242 26272ft 288kts
29-Jul-20 09:56 38.399068 -107.143277 243 26272ft 285kts
29-Jul-20 09:57 38.355545 -107.227263 243 26331ft 282kts
29-Jul-20 09:58 38.312249 -107.310497 243 26397ft 280kts
29-Jul-20 09:59 38.269385 -107.392684 243 26464ft 279kts
29-Jul-20 10:00 38.226524 -107.474688 243 26520ft 278kts
29-Jul-20 10:01 38.183489 -107.556830 243 26517ft 279kts
29-Jul-20 10:02 38.140235 -107.639146 243 26518ft 280kts
29-Jul-20 10:03 38.097176 -107.720906 243 26525ft 281kts
29-Jul-20 10:04 38.053448 -107.803738 243 26525ft 282kts
29-Jul-20 10:05 38.009600 -107.886581 243 26524ft 283kts
29-Jul-20 10:06 37.965623 -107.969414 243 26524ft 284kts
29-Jul-20 10:07 37.921409 -108.052529 243 26502ft 285kts
29-Jul-20 10:08 37.876722 -108.136327 243 26424ft 287kts
29-Jul-20 10:09 37.832009 -108.219935 243 26345ft 287kts
29-Jul-20 10:10 37.787172 -108.303532 242 26294ft 287kts
29-Jul-20 10:11 37.742406 -108.386810 242 26269ft 286kts
29-Jul-20 10:12 37.697773 -108.469620 242 26269ft 285kts
29-Jul-20 10:13 37.653126 -108.552261 242 26268ft 284kts
29-Jul-20 10:14 37.608642 -108.634399 242 26268ft 284kts
29-Jul-20 10:15 37.564554 -108.715629 242 26276ft 284kts
29-Jul-20 10:17 37.519781 -108.797946 242 26275ft 285kts
29-Jul-20 10:18 37.474706 -108.880513 242 26279ft 286kts
29-Jul-20 10:19 37.429574 -108.963013 242 26291ft 286kts
29-Jul-20 10:20 37.384264 -109.045200 242 26299ft 286kts
29-Jul-20 10:21 37.339112 -109.127794 241 26303ft 286kts
29-Jul-20 10:22 37.293713 -109.210219 241 26303ft 286kts
29-Jul-20 10:23 37.248298 -109.292403 241 26304ft 287kts
29-Jul-20 10:24 37.202847 -109.374470 241 26300ft 287kts
29-Jul-20 10:25 37.157181 -109.456730 241 26294ft 287kts
29-Jul-20 10:26 37.111521 -109.538777 241 26287ft 287kts
29-Jul-20 10:27 37.065705 -109.620910 241 26280ft 287kts
29-Jul-20 10:28 37.019896 -109.702816 240 26294ft 288kts
29-Jul-20 10:29 36.973755 -109.785109 240 26321ft 288kts
29-Jul-20 10:30 36.927695 -109.867071 240 26350ft 289kts
29-Jul-20 10:31 36.885088 -109.942713 240 26367ft 289kts
29-Jul-20 10:32 36.838867 -110.024583 240 26357ft 289kts
29-Jul-20 10:32 36.799998 -110.093266 240 26348ft 290kts
29-Jul-20 10:34 36.745605 -110.189149 240 26334ft 290kts
29-Jul-20 10:34 36.706754 -110.257464 240 26326ft 290kts
29-Jul-20 10:35 36.659981 -110.339540 240 26314ft 291kts
29-Jul-20 10:37 36.605208 -110.435390 240 26307ft 291kts
29-Jul-20 10:37 36.566030 -110.503808 240 26308ft 291kts
29-Jul-20 10:38 36.518992 -110.585727 240 26310ft 291kts
29-Jul-20 10:40 36.463889 -110.681464 239 26321ft 291kts
29-Jul-20 10:40 36.424547 -110.749692 239 26167ft 298kts
29-Jul-20 10:41 36.373146 -110.839199 238 24703ft 334kts
29-Jul-20 10:42 36.317729 -110.935092 238 23240ft 347kts
29-Jul-20 10:43 36.260974 -111.032621 237 21758ft 349kts
29-Jul-20 10:44 36.204374 -111.129837 237 20268ft 347kts
29-Jul-20 10:45 36.147852 -111.226549 236 18771ft 344kts
29-Jul-20 10:46 36.110306 -111.330029 258 17261ft 325kts
29-Jul-20 10:47 36.090361 -111.437605 258 15748ft 316kts
29-Jul-20 10:48 36.070619 -111.542052 257 14239ft 308kts
29-Jul-20 10:49 36.050779 -111.643706 256 12728ft 302kts
29-Jul-20 10:50 36.031478 -111.743636 255 11354ft 293kts
29-Jul-20 10:51 36.013299 -111.837620 255 10988ft 264kts
29-Jul-20 10:52 35.996732 -111.922254 255 10992ft 245kts
29-Jul-20 10:53 35.981230 -112.001213 255 10636ft 231kts
29-Jul-20 10:54 35.956370 -112.071612 225 9578ft 226kts
29-Jul-20 10:55 35.938155 -112.135142 275 9107ft 193kts
29-Jul-20 10:56 35.983639 -112.151600 18 8459ft 181kts
29-Jul-20 10:57 36.012682 -112.111019 112 8329ft 157kts
29-Jul-20 10:58 35.983686 -112.113369 225 7569ft 132kts
29-Jul-20 10:59 35.958607 -112.140354 221 6606ft 98kts
29-Jul-20 11:00 35.953683 -112.143799 41 6585ft 4kts
29-Jul-20 11:01 35.953722 -112.143758 41 6585ft 0kts
29-Jul-20 11:02 35.954201 -112.143258 41 6587ft 15kts
29-Jul-20 11:03 35.958179 -112.139079 40 6607ft 19kts
29-Jul-20 11:04 35.959693 -112.136891 134 6615ft 4kts
29-Jul-20 11:05 35.959504 -112.136870 218 6616ft 0kts
29-Jul-20 11:06 35.959504 -112.136870 218 6616ft 0kts
29-Jul-20 11:07 35.959504 -112.136870 218 6616ft 0kts
29-Jul-20 11:08 35.959504 -112.136870 218 6616ft 0kts
29-Jul-20 11:09 35.959504 -112.136870 218 6616ft 0kts

Navigation Log

Ident Type
Flight plan parsing failed, navigation log unavailable